Time,TemperatureF,DewpointF,PressureIn,WindDirection,WindDirectionDegrees,WindSpeedMPH,WindSpeedGustMPH,Humidity,HourlyPrecipIn,Conditions,Clouds,dailyrainin,SoftwareType,DateUTC
2013-06-24 00:01:00,65.1,64.8,30.10,SSE,162,0.0,0.0,99,0.00,,,0.00,Wunderground v.1.15,2013-06-24 04:01:00,
2013-06-24 00:03:00,65.0,64.7,30.10,SSE,162,0.0,0.0,99,0.00,,,0.00,Wunderground v.1.15,2013-06-24 04:03:00,
2013-06-24 00:07:00,64.9,64.6,30.10,SSE,161,0.0,0.0,99,0.00,,,0.00,Wunderground v.1.15,2013-06-24 04:07:00,
2013-06-24 00:12:00,64.7,64.4,30.10,SSE,162,0.0,0.0,99,0.00,,,0.00,Wunderground v.1.15,2013-06-24 04:12:00,
2013-06-24 00:18:00,64.8,64.5,30.10,SSE,162,0.0,0.0,99,0.00,,,0.00,Wunderground v.1.15,2013-06-24 04:18:00,
2013-06-24 00:24:00,64.6,64.3,30.10,SSE,162,0.0,0.0,99,0.00,,,0.00,Wunderground v.1.15,2013-06-24 04:24:00,
2013-06-24 00:30:00,64.5,64.2,30.10,SSE,161,0.0,0.0,99,0.00,,,0.00,Wunderground v.1.15,2013-06-24 04:30:00,
2013-06-24 00:36:00,64.2,63.9,30.10,SSE,162,0.0,0.0,99,0.00,,,0.00,Wunderground v.1.15,2013-06-24 04:36:00,
2013-06-24 00:41:00,64.1,63.8,30.10,SSE,161,0.0,0.0,99,0.00,,,0.00,Wunderground v.1.15,2013-06-24 04:41:00,
2013-06-24 00:47:00,63.9,63.6,30.10,SSE,162,0.0,0.0,99,0.00,,,0.00,Wunderground v.1.15,2013-06-24 04:47:00,
2013-06-24 00:53:00,63.6,63.3,30.10,SSE,162,0.0,0.0,99,0.00,,,0.00,Wunderground v.1.15,2013-06-24 04:53:00,
2013-06-24 00:59:00,63.6,63.3,30.10,SSE,162,0.0,0.0,99,0.00,,,0.00,Wunderground v.1.15,2013-06-24 04:59:00,
2013-06-24 01:04:00,63.7,63.4,30.10,SSE,161,0.0,0.0,99,0.00,,,0.00,Wunderground v.1.15,2013-06-24 05:04:00,
2013-06-24 01:10:00,63.4,63.1,30.09,SSE,161,0.0,0.0,99,0.00,,,0.00,Wunderground v.1.15,2013-06-24 05:10:00,
2013-06-24 01:16:00,63.2,62.9,30.10,SSE,162,0.0,0.0,99,0.00,,,0.00,Wunderground v.1.15,2013-06-24 05:16:00,
2013-06-24 01:21:00,63.2,62.9,30.10,SSE,162,0.0,0.0,99,0.00,,,0.00,Wunderground v.1.15,2013-06-24 05:21:00,
2013-06-24 01:27:00,63.0,62.7,30.09,SSE,162,0.0,0.0,99,0.00,,,0.00,Wunderground v.1.15,2013-06-24 05:27:00,
2013-06-24 01:33:00,63.0,62.7,30.10,SSE,162,0.0,0.0,99,0.00,,,0.00,Wunderground v.1.15,2013-06-24 05:33:00,
2013-06-24 01:40:00,63.1,62.8,30.10,SSE,162,0.0,0.0,99,0.00,,,0.00,Wunderground v.1.15,2013-06-24 05:40:00,
2013-06-24 01:45:00,62.9,62.6,30.10,SSE,162,0.0,0.0,99,0.00,,,0.00,Wunderground v.1.15,2013-06-24 05:45:00,
2013-06-24 01:51:00,62.8,62.5,30.10,SSE,161,0.0,0.0,99,0.00,,,0.00,Wunderground v.1.15,2013-06-24 05:51:00,
2013-06-24 01:59:00,62.7,62.4,30.10,SSE,161,0.0,0.0,99,0.00,,,0.00,Wunderground v.1.15,2013-06-24 05:59:00,
2013-06-24 02:05:00,62.5,62.2,30.10,SSE,161,0.0,0.0,99,0.00,,,0.00,Wunderground v.1.15,2013-06-24 06:05:00,
2013-06-24 02:10:00,62.4,62.1,30.10,SSE,162,0.0,0.0,99,0.00,,,0.00,Wunderground v.1.15,2013-06-24 06:10:00,
2013-06-24 02:17:00,62.5,62.2,30.10,SSE,161,0.0,0.0,99,0.00,,,0.00,Wunderground v.1.15,2013-06-24 06:17:00,
2013-06-24 02:23:00,62.4,62.1,30.09,SSE,162,0.0,0.0,99,0.00,,,0.00,Wunderground v.1.15,2013-06-24 06:23:00,
2013-06-24 02:29:00,62.3,62.0,30.09,SSE,162,0.0,0.0,99,0.00,,,0.00,Wunderground v.1.15,2013-06-24 06:29:00,
2013-06-24 02:34:00,62.2,61.9,30.09,SSE,161,0.0,0.0,99,0.00,,,0.00,Wunderground v.1.15,2013-06-24 06:34:00,
2013-06-24 02:40:00,62.2,61.9,30.09,SSE,162,0.0,0.0,99,0.00,,,0.00,Wunderground v.1.15,2013-06-24 06:40:00,
2013-06-24 02:45:00,62.2,61.9,30.09,SSE,161,0.0,0.0,99,0.00,,,0.00,Wunderground v.1.15,2013-06-24 06:45:00,
2013-06-24 02:51:00,62.1,61.8,30.09,SSE,162,0.0,0.0,99,0.00,,,0.00,Wunderground v.1.15,2013-06-24 06:51:00,
2013-06-24 02:57:00,61.9,61.6,30.09,SSE,162,0.0,0.0,99,0.00,,,0.00,Wunderground v.1.15,2013-06-24 06:57:00,
2013-06-24 03:02:00,61.8,61.5,30.09,SSE,161,0.0,0.0,99,0.00,,,0.00,Wunderground v.1.15,2013-06-24 07:02:00,
2013-06-24 03:08:00,61.7,61.4,30.09,SSE,161,0.0,0.0,99,0.00,,,0.00,Wunderground v.1.15,2013-06-24 07:08:00,
2013-06-24 03:14:00,61.7,61.4,30.09,SSE,161,0.0,0.0,99,0.00,,,0.00,Wunderground v.1.15,2013-06-24 07:14:00,
2013-06-24 03:20:00,61.6,61.3,30.09,SSE,161,0.0,0.0,99,0.00,,,0.00,Wunderground v.1.15,2013-06-24 07:20:00,
2013-06-24 03:25:00,61.5,61.2,30.09,SSE,161,0.0,0.0,99,0.00,,,0.00,Wunderground v.1.15,2013-06-24 07:25:00,
2013-06-24 03:31:00,61.6,61.3,30.09,SSE,161,0.0,0.0,99,0.00,,,0.00,Wunderground v.1.15,2013-06-24 07:31:00,
2013-06-24 03:36:00,61.5,61.2,30.09,SSE,162,0.0,0.0,99,0.00,,,0.00,Wunderground v.1.15,2013-06-24 07:36:00,
2013-06-24 03:42:00,61.6,61.3,30.09,SSE,162,0.0,0.0,99,0.00,,,0.00,Wunderground v.1.15,2013-06-24 07:42:00,
2013-06-24 03:47:00,61.5,61.2,30.09,SSE,162,0.0,0.0,99,0.00,,,0.00,Wunderground v.1.15,2013-06-24 07:47:00,
2013-06-24 03:53:00,61.3,61.0,30.09,SSE,162,0.0,0.0,99,0.00,,,0.00,Wunderground v.1.15,2013-06-24 07:53:00,
2013-06-24 03:59:00,61.4,61.1,30.09,SSE,162,0.0,0.0,99,0.00,,,0.00,Wunderground v.1.15,2013-06-24 07:59:00,
2013-06-24 04:04:00,61.3,61.0,30.09,SSE,161,0.0,0.0,99,0.00,,,0.00,Wunderground v.1.15,2013-06-24 08:04:00,
2013-06-24 04:11:00,61.4,61.1,30.09,SSE,162,0.0,0.0,99,0.00,,,0.00,Wunderground v.1.15,2013-06-24 08:11:00,
2013-06-24 04:16:00,61.3,61.0,30.09,SSE,162,0.0,0.0,99,0.00,,,0.00,Wunderground v.1.15,2013-06-24 08:16:00,
2013-06-24 04:21:00,61.2,60.9,30.09,SSE,162,0.0,0.0,99,0.00,,,0.00,Wunderground v.1.15,2013-06-24 08:21:00,
2013-06-24 04:27:00,61.2,60.9,30.09,SSE,161,0.0,0.0,99,0.00,,,0.00,Wunderground v.1.15,2013-06-24 08:27:00,
2013-06-24 04:33:00,60.9,60.6,30.09,SSE,162,0.0,0.0,99,0.00,,,0.00,Wunderground v.1.15,2013-06-24 08:33:00,
2013-06-24 04:39:00,60.9,60.6,30.09,SSE,162,0.0,0.0,99,0.00,,,0.00,Wunderground v.1.15,2013-06-24 08:39:00,
2013-06-24 04:44:00,61.0,60.7,30.09,SSE,162,0.0,0.0,99,0.00,,,0.00,Wunderground v.1.15,2013-06-24 08:44:00,
2013-06-24 04:51:00,61.0,60.7,30.10,SSE,162,0.0,0.0,99,0.00,,,0.00,Wunderground v.1.15,2013-06-24 08:51:00,
2013-06-24 04:57:00,60.9,60.6,30.09,SSE,161,0.0,0.0,99,0.00,,,0.00,Wunderground v.1.15,2013-06-24 08:57:00,
2013-06-24 05:02:00,60.7,60.4,30.09,SSE,162,0.0,0.0,99,0.00,,,0.00,Wunderground v.1.15,2013-06-24 09:02:00,
2013-06-24 05:07:00,60.6,60.3,30.09,SSE,161,0.0,0.0,99,0.00,,,0.00,Wunderground v.1.15,2013-06-24 09:07:00,
2013-06-24 05:13:00,60.4,60.1,30.09,SSE,162,0.0,0.0,99,0.00,,,0.00,Wunderground v.1.15,2013-06-24 09:13:00,
2013-06-24 05:18:00,60.4,60.1,30.09,SSE,161,0.0,0.0,99,0.00,,,0.00,Wunderground v.1.15,2013-06-24 09:18:00,
2013-06-24 05:24:00,60.6,60.3,30.09,SSE,161,0.0,0.0,99,0.00,,,0.00,Wunderground v.1.15,2013-06-24 09:24:00,
2013-06-24 05:30:00,60.4,60.1,30.09,SSE,161,0.0,0.0,99,0.00,,,0.00,Wunderground v.1.15,2013-06-24 09:30:00,
2013-06-24 05:36:00,60.3,60.0,30.10,SSE,162,0.0,0.0,99,0.00,,,0.00,Wunderground v.1.15,2013-06-24 09:36:00,
2013-06-24 05:42:00,60.2,59.9,30.10,SSE,161,0.0,0.0,99,0.00,,,0.00,Wunderground v.1.15,2013-06-24 09:42:00,
2013-06-24 05:48:00,60.0,59.7,30.10,SSE,162,0.0,0.0,99,0.00,,,0.00,Wunderground v.1.15,2013-06-24 09:48:00,
2013-06-24 05:54:00,60.2,59.9,30.10,SSE,162,0.0,0.0,99,0.00,,,0.00,Wunderground v.1.15,2013-06-24 09:54:00,
2013-06-24 05:59:00,60.2,59.9,30.10,SSE,161,0.0,0.0,99,0.00,,,0.00,Wunderground v.1.15,2013-06-24 09:59:00,
2013-06-24 06:05:00,60.1,59.8,30.11,SSE,161,0.0,0.0,99,0.00,,,0.00,Wunderground v.1.15,2013-06-24 10:05:00,
2013-06-24 06:10:00,59.9,59.6,30.11,SSE,162,0.0,0.0,99,0.00,,,0.00,Wunderground v.1.15,2013-06-24 10:10:00,
2013-06-24 06:16:00,59.8,59.5,30.11,SSE,161,0.0,0.0,99,0.00,,,0.00,Wunderground v.1.15,2013-06-24 10:16:00,
2013-06-24 06:22:00,60.2,59.9,30.11,SSE,162,0.0,0.0,99,0.00,,,0.00,Wunderground v.1.15,2013-06-24 10:22:00,
2013-06-24 06:27:00,60.2,59.9,30.11,SSE,161,0.0,0.0,99,0.00,,,0.00,Wunderground v.1.15,2013-06-24 10:27:00,
2013-06-24 06:33:00,60.1,59.8,30.11,SSE,161,0.0,0.0,99,0.00,,,0.00,Wunderground v.1.15,2013-06-24 10:33:00,
2013-06-24 06:38:00,60.1,59.8,30.11,SSE,162,0.0,0.0,99,0.00,,,0.00,Wunderground v.1.15,2013-06-24 10:38:00,
2013-06-24 06:43:00,60.3,60.0,30.11,SSE,162,0.0,0.0,99,0.00,,,0.00,Wunderground v.1.15,2013-06-24 10:43:00,
2013-06-24 06:49:00,60.5,60.2,30.11,SSE,162,0.0,0.0,99,0.00,,,0.00,Wunderground v.1.15,2013-06-24 10:49:00,
2013-06-24 06:55:00,60.9,60.6,30.11,SSE,162,0.0,0.0,99,0.00,,,0.00,Wunderground v.1.15,2013-06-24 10:55:00,
2013-06-24 07:00:00,61.0,60.7,30.11,SSE,162,0.0,0.0,99,0.00,,,0.00,Wunderground v.1.15,2013-06-24 11:00:00,
2013-06-24 07:05:00,61.2,60.9,30.11,SSE,161,0.0,0.0,99,0.00,,,0.00,Wunderground v.1.15,2013-06-24 11:05:00,
2013-06-24 07:11:00,61.4,61.1,30.11,SSE,162,0.0,0.0,99,0.00,,,0.00,Wunderground v.1.15,2013-06-24 11:11:00,
2013-06-24 07:16:00,62.0,61.7,30.11,SSE,162,0.0,0.0,99,0.00,,,0.00,Wunderground v.1.15,2013-06-24 11:16:00,
2013-06-24 07:22:00,62.3,62.0,30.11,SSE,162,0.0,0.0,99,0.00,,,0.00,Wunderground v.1.15,2013-06-24 11:22:00,
2013-06-24 07:27:00,63.1,62.8,30.11,SSE,162,0.0,0.0,99,0.00,,,0.00,Wunderground v.1.15,2013-06-24 11:27:00,
2013-06-24 07:33:00,64.1,63.8,30.12,SSE,162,0.0,0.0,99,0.00,,,0.00,Wunderground v.1.15,2013-06-24 11:33:00,
2013-06-24 07:39:00,65.1,64.8,30.12,SSE,162,0.0,0.0,99,0.00,,,0.00,Wunderground v.1.15,2013-06-24 11:39:00,
2013-06-24 07:45:00,65.9,65.6,30.12,SSE,161,0.0,0.0,99,0.00,,,0.00,Wunderground v.1.15,2013-06-24 11:45:00,
2013-06-24 07:50:00,66.7,66.4,30.12,SSE,162,0.0,0.0,99,0.00,,,0.00,Wunderground v.1.15,2013-06-24 11:50:00,
2013-06-24 07:56:00,67.1,66.8,30.12,SSE,162,0.0,1.0,99,0.00,,,0.00,Wunderground v.1.15,2013-06-24 11:56:00,
2013-06-24 08:02:00,68.1,67.8,30.12,SSE,162,0.0,2.0,99,0.00,,,0.00,Wunderground v.1.15,2013-06-24 12:02:00,
2013-06-24 08:08:00,68.1,67.8,30.12,SE,136,0.0,2.0,99,0.00,,,0.00,Wunderground v.1.15,2013-06-24 12:08:00,
2013-06-24 08:13:00,68.9,68.6,30.12,SE,136,0.0,2.0,99,0.00,,,0.00,Wunderground v.1.15,2013-06-24 12:13:00,
2013-06-24 08:18:00,69.4,69.1,30.12,SE,136,0.0,2.0,99,0.00,,,0.00,Wunderground v.1.15,2013-06-24 12:18:00,
2013-06-24 08:25:00,69.5,69.2,30.12,SE,134,0.0,2.0,99,0.00,,,0.00,Wunderground v.1.15,2013-06-24 12:25:00,
2013-06-24 08:30:00,70.2,69.9,30.12,SE,130,0.0,2.0,99,0.00,,,0.00,Wunderground v.1.15,2013-06-24 12:30:00,
2013-06-24 08:36:00,71.1,70.8,30.12,SE,130,0.0,2.0,99,0.00,,,0.00,Wunderground v.1.15,2013-06-24 12:36:00,
2013-06-24 08:42:00,71.9,71.6,30.12,SE,131,0.0,2.0,99,0.00,,,0.00,Wunderground v.1.15,2013-06-24 12:42:00,
2013-06-24 08:48:00,72.6,72.0,30.12,SE,130,0.0,2.0,98,0.00,,,0.00,Wunderground v.1.15,2013-06-24 12:48:00,
2013-06-24 08:53:00,73.0,71.5,30.12,WNW,288,0.0,2.0,95,0.00,,,0.00,Wunderground v.1.15,2013-06-24 12:53:00,
2013-06-24 08:58:00,74.4,71.9,30.12,North,9,0.0,2.0,92,0.00,,,0.00,Wunderground v.1.15,2013-06-24 12:58:00,
2013-06-24 09:03:00,75.5,73.0,30.13,North,360,0.0,4.0,92,0.00,,,0.00,Wunderground v.1.15,2013-06-24 13:03:00,
2013-06-24 09:09:00,76.4,72.6,30.12,South,174,0.0,4.0,88,0.00,,,0.00,Wunderground v.1.15,2013-06-24 13:09:00,
2013-06-24 09:14:00,76.8,73.0,30.13,South,173,1.0,4.0,88,0.00,,,0.00,Wunderground v.1.15,2013-06-24 13:14:00,
2013-06-24 09:20:00,77.8,73.6,30.12,North,360,1.0,4.0,87,0.00,,,0.00,Wunderground v.1.15,2013-06-24 13:20:00,
2013-06-24 09:25:00,78.0,72.8,30.12,WNW,299,1.0,4.0,84,0.00,,,0.00,Wunderground v.1.15,2013-06-24 13:25:00,
2013-06-24 09:31:00,78.4,72.8,30.12,WNW,290,1.0,4.0,83,0.00,,,0.00,Wunderground v.1.15,2013-06-24 13:31:00,
2013-06-24 09:36:00,78.4,73.2,30.12,WNW,292,1.0,4.0,84,0.00,,,0.00,Wunderground v.1.15,2013-06-24 13:36:00,
2013-06-24 09:42:00,79.1,72.8,30.12,WSW,257,1.0,4.0,81,0.00,,,0.00,Wunderground v.1.15,2013-06-24 13:42:00,
2013-06-24 09:48:00,79.4,73.8,30.12,WNW,296,1.0,4.0,83,0.00,,,0.00,Wunderground v.1.15,2013-06-24 13:48:00,
2013-06-24 09:54:00,80.2,74.6,30.12,NW,304,0.0,4.0,83,0.00,,,0.00,Wunderground v.1.15,2013-06-24 13:54:00,
2013-06-24 10:01:00,80.5,74.5,30.12,SSE,155,1.0,1.0,82,0.00,,,0.00,Wunderground v.1.15,2013-06-24 14:01:00,
2013-06-24 10:06:00,80.1,73.7,30.13,NNW,332,1.0,4.0,81,0.00,,,0.00,Wunderground v.1.15,2013-06-24 14:06:00,
2013-06-24 10:12:00,80.6,74.2,30.13,NNW,348,1.0,4.0,81,0.00,,,0.00,Wunderground v.1.15,2013-06-24 14:12:00,
2013-06-24 10:17:00,81.4,74.6,30.12,South,180,1.0,4.0,80,0.00,,,0.00,Wunderground v.1.15,2013-06-24 14:17:00,
2013-06-24 10:22:00,81.2,73.3,30.13,South,184,1.0,4.0,77,0.00,,,0.00,Wunderground v.1.15,2013-06-24 14:22:00,
2013-06-24 10:28:00,81.6,73.3,30.13,South,183,1.0,4.0,76,0.00,,,0.00,Wunderground v.1.15,2013-06-24 14:28:00,
2013-06-24 10:36:00,81.9,72.8,30.12,SSE,153,0.0,4.0,74,0.00,,,0.00,Wunderground v.1.15,2013-06-24 14:36:00,
2013-06-24 10:42:00,82.2,73.5,30.13,South,171,1.0,4.0,75,0.00,,,0.00,Wunderground v.1.15,2013-06-24 14:42:00,
2013-06-24 10:48:00,82.2,71.9,30.13,NNW,329,1.0,4.0,71,0.00,,,0.00,Wunderground v.1.15,2013-06-24 14:48:00,
2013-06-24 10:54:00,82.4,74.5,30.12,North,360,1.0,4.0,77,0.00,,,0.00,Wunderground v.1.15,2013-06-24 14:54:00,
2013-06-24 10:59:00,83.1,73.9,30.12,NNE,22,1.0,4.0,74,0.00,,,0.00,Wunderground v.1.15,2013-06-24 14:59:00,
2013-06-24 11:04:00,83.0,73.0,30.12,South,179,1.0,6.0,72,0.00,,,0.00,Wunderground v.1.15,2013-06-24 15:04:00,
2013-06-24 11:11:00,82.8,73.7,30.12,SE,141,2.0,6.0,74,0.00,,,0.00,Wunderground v.1.15,2013-06-24 15:11:00,
2013-06-24 11:16:00,82.9,72.9,30.12,NNE,21,2.0,6.0,72,0.00,,,0.00,Wunderground v.1.15,2013-06-24 15:16:00,
2013-06-24 11:22:00,84.1,74.1,30.12,NNW,335,1.0,3.0,72,0.00,,,0.00,Wunderground v.1.15,2013-06-24 15:22:00,
2013-06-24 11:27:00,83.4,74.6,30.12,North,360,1.0,6.0,75,0.00,,,0.00,Wunderground v.1.15,2013-06-24 15:27:00,
2013-06-24 11:32:00,83.8,73.8,30.12,NNW,342,1.0,6.0,72,0.00,,,0.00,Wunderground v.1.15,2013-06-24 15:32:00,
2013-06-24 11:38:00,83.9,73.9,30.11,NNW,336,1.0,6.0,72,0.00,,,0.00,Wunderground v.1.15,2013-06-24 15:38:00,
2013-06-24 11:43:00,82.2,73.5,30.11,WNW,294,0.0,6.0,75,0.00,,,0.00,Wunderground v.1.15,2013-06-24 15:43:00,
2013-06-24 11:49:00,82.7,74.0,30.11,NE,53,1.0,6.0,75,0.00,,,0.00,Wunderground v.1.15,2013-06-24 15:49:00,
2013-06-24 11:54:00,84.8,75.6,30.11,NW,326,2.0,6.0,74,0.00,,,0.00,Wunderground v.1.15,2013-06-24 15:54:00,
2013-06-24 11:59:00,85.1,73.8,30.11,SSW,210,2.0,7.0,69,0.00,,,0.00,Wunderground v.1.15,2013-06-24 15:59:00,
2013-06-24 12:05:00,83.2,72.0,30.11,NNW,333,1.0,9.0,69,0.00,,,0.00,Wunderground v.1.15,2013-06-24 16:05:00,
2013-06-24 12:10:00,83.9,73.5,30.10,ESE,123,1.0,9.0,71,0.00,,,0.00,Wunderground v.1.15,2013-06-24 16:10:00,
2013-06-24 12:16:00,85.0,73.7,30.10,SSW,200,2.0,9.0,69,0.00,,,0.00,Wunderground v.1.15,2013-06-24 16:16:00,
2013-06-24 12:21:00,84.0,74.4,30.10,NNW,342,2.0,9.0,73,0.00,,,0.00,Wunderground v.1.15,2013-06-24 16:21:00,
2013-06-24 12:27:00,82.2,73.1,30.10,NNW,336,1.0,9.0,74,0.00,,,0.00,Wunderground v.1.15,2013-06-24 16:27:00,
2013-06-24 12:33:00,84.1,76.5,30.10,NNE,29,1.0,9.0,78,0.00,,,0.00,Wunderground v.1.15,2013-06-24 16:33:00,
2013-06-24 12:39:00,85.7,75.2,30.09,NW,309,1.0,9.0,71,0.00,,,0.00,Wunderground v.1.15,2013-06-24 16:39:00,
2013-06-24 12:45:00,84.7,73.4,30.09,SSE,157,2.0,9.0,69,0.00,,,0.00,Wunderground v.1.15,2013-06-24 16:45:00,
2013-06-24 12:50:00,84.4,74.4,30.09,SE,145,3.0,3.0,72,0.00,,,0.00,Wunderground v.1.15,2013-06-24 16:50:00,
2013-06-24 12:56:00,84.2,73.3,30.09,SSE,163,4.0,9.0,70,0.00,,,0.00,Wunderground v.1.15,2013-06-24 16:56:00,
2013-06-24 13:02:00,84.6,74.2,30.09,South,175,3.0,8.0,71,0.00,,,0.00,Wunderground v.1.15,2013-06-24 17:02:00,
2013-06-24 13:08:00,84.3,73.4,30.09,South,179,4.0,11.0,70,0.00,,,0.00,Wunderground v.1.15,2013-06-24 17:08:00,
2013-06-24 13:14:00,85.2,73.9,30.09,ENE,64,2.0,11.0,69,0.00,,,0.00,Wunderground v.1.15,2013-06-24 17:14:00,
2013-06-24 13:19:00,85.0,74.5,30.09,SSE,150,2.0,11.0,71,0.00,,,0.00,Wunderground v.1.15,2013-06-24 17:19:00,
2013-06-24 13:25:00,85.2,73.9,30.08,South,173,2.0,11.0,69,0.00,,,0.00,Wunderground v.1.15,2013-06-24 17:25:00,
2013-06-24 13:31:00,85.0,73.3,30.08,South,183,3.0,11.0,68,0.00,,,0.00,Wunderground v.1.15,2013-06-24 17:31:00,
2013-06-24 13:37:00,84.1,73.7,30.08,SSE,148,3.0,11.0,71,0.00,,,0.00,Wunderground v.1.15,2013-06-24 17:37:00,
2013-06-24 13:42:00,85.0,72.8,30.08,South,191,4.0,11.0,67,0.00,,,0.00,Wunderground v.1.15,2013-06-24 17:42:00,
2013-06-24 13:48:00,86.1,71.6,30.08,SSE,163,3.0,11.0,62,0.00,,,0.00,Wunderground v.1.15,2013-06-24 17:48:00,
2013-06-24 13:54:00,85.1,71.5,30.07,North,360,1.0,11.0,64,0.00,,,0.00,Wunderground v.1.15,2013-06-24 17:54:00,
2013-06-24 13:59:00,84.7,73.0,30.07,North,360,1.0,11.0,68,0.00,,,0.00,Wunderground v.1.15,2013-06-24 17:59:00,
2013-06-24 14:05:00,83.3,72.1,30.07,SE,133,3.0,10.0,69,0.00,,,0.00,Wunderground v.1.15,2013-06-24 18:05:00,
2013-06-24 14:11:00,82.3,72.0,30.07,SSE,147,3.0,10.0,71,0.00,,,0.00,Wunderground v.1.15,2013-06-24 18:11:00,
2013-06-24 14:16:00,82.7,72.3,30.06,SE,126,1.0,10.0,71,0.00,,,0.00,Wunderground v.1.15,2013-06-24 18:16:00,
2013-06-24 14:22:00,85.1,75.5,30.06,ESE,121,3.0,10.0,73,0.00,,,0.00,Wunderground v.1.15,2013-06-24 18:22:00,
2013-06-24 14:28:00,85.1,73.8,30.06,SSW,196,4.0,10.0,69,0.00,,,0.00,Wunderground v.1.15,2013-06-24 18:28:00,
2013-06-24 14:33:00,84.1,74.5,30.06,South,178,3.0,10.0,73,0.00,,,0.00,Wunderground v.1.15,2013-06-24 18:33:00,
2013-06-24 14:39:00,83.1,73.5,30.06,SSE,165,2.0,10.0,73,0.00,,,0.00,Wunderground v.1.15,2013-06-24 18:39:00,
2013-06-24 14:44:00,83.6,74.4,30.05,ESE,117,4.0,10.0,74,0.00,,,0.00,Wunderground v.1.15,2013-06-24 18:44:00,
2013-06-24 14:50:00,84.0,74.4,30.05,SE,132,4.0,10.0,73,0.00,,,0.00,Wunderground v.1.15,2013-06-24 18:50:00,
2013-06-24 14:55:00,83.1,74.4,30.05,ESE,114,3.0,10.0,75,0.00,,,0.00,Wunderground v.1.15,2013-06-24 18:55:00,
2013-06-24 15:00:00,82.5,74.2,30.04,SSE,149,3.0,4.0,76,0.00,,,0.00,Wunderground v.1.15,2013-06-24 19:00:00,
2013-06-24 15:06:00,82.6,73.9,30.05,SE,142,4.0,11.0,75,0.00,,,0.00,Wunderground v.1.15,2013-06-24 19:06:00,
2013-06-24 15:11:00,83.2,74.4,30.04,SE,133,4.0,11.0,75,0.00,,,0.00,Wunderground v.1.15,2013-06-24 19:11:00,
2013-06-24 15:17:00,82.7,73.6,30.04,SSE,163,4.0,11.0,74,0.00,,,0.00,Wunderground v.1.15,2013-06-24 19:17:00,
2013-06-24 15:23:00,82.8,73.7,30.04,South,169,4.0,11.0,74,0.00,,,0.00,Wunderground v.1.15,2013-06-24 19:23:00,
2013-06-24 15:28:00,83.0,73.0,30.03,SSE,160,3.0,11.0,72,0.00,,,0.00,Wunderground v.1.15,2013-06-24 19:28:00,
2013-06-24 15:33:00,83.2,74.0,30.03,SSE,162,2.0,11.0,74,0.00,,,0.00,Wunderground v.1.15,2013-06-24 19:33:00,
2013-06-24 15:39:00,83.7,73.3,30.03,SSE,151,3.0,11.0,71,0.00,,,0.00,Wunderground v.1.15,2013-06-24 19:39:00,
2013-06-24 15:44:00,83.2,73.6,30.03,SSE,168,3.0,11.0,73,0.00,,,0.00,Wunderground v.1.15,2013-06-24 19:44:00,
2013-06-24 15:50:00,82.6,72.7,30.03,SSW,210,2.0,11.0,72,0.00,,,0.00,Wunderground v.1.15,2013-06-24 19:50:00,
2013-06-24 15:56:00,82.6,73.1,30.03,SE,133,3.0,11.0,73,0.00,,,0.00,Wunderground v.1.15,2013-06-24 19:56:00,
2013-06-24 16:01:00,83.0,73.4,30.02,SE,139,4.0,13.0,73,0.00,,,0.00,Wunderground v.1.15,2013-06-24 20:01:00,
2013-06-24 16:07:00,82.9,73.8,30.02,South,180,4.0,13.0,74,0.00,,,0.00,Wunderground v.1.15,2013-06-24 20:07:00,
2013-06-24 16:13:00,83.0,73.4,30.02,SE,132,2.0,13.0,73,0.00,,,0.00,Wunderground v.1.15,2013-06-24 20:13:00,
2013-06-24 16:19:00,82.3,72.4,30.02,SSE,155,2.0,13.0,72,0.00,,,0.00,Wunderground v.1.15,2013-06-24 20:19:00,
2013-06-24 16:24:00,81.5,72.4,30.02,SSE,161,2.0,13.0,74,0.00,,,0.00,Wunderground v.1.15,2013-06-24 20:24:00,
2013-06-24 16:30:00,81.5,72.4,30.01,SSE,150,1.0,1.0,74,0.00,,,0.00,Wunderground v.1.15,2013-06-24 20:30:00,
2013-06-24 16:38:00,82.8,74.1,30.01,SE,144,1.0,13.0,75,0.00,,,0.00,Wunderground v.1.15,2013-06-24 20:38:00,
2013-06-24 16:44:00,82.9,72.9,30.01,SSE,155,0.0,13.0,72,0.00,,,0.00,Wunderground v.1.15,2013-06-24 20:44:00,
2013-06-24 16:50:00,83.0,72.6,30.01,South,172,2.0,2.0,71,0.00,,,0.00,Wunderground v.1.15,2013-06-24 20:50:00,
2013-06-24 16:56:00,83.3,74.5,30.00,South,173,2.0,13.0,75,0.00,,,0.00,Wunderground v.1.15,2013-06-24 20:56:00,
2013-06-24 17:01:00,83.4,73.8,30.00,SE,134,1.0,10.0,73,0.00,,,0.00,Wunderground v.1.15,2013-06-24 21:01:00,
2013-06-24 17:07:00,83.0,72.6,30.00,SSE,165,1.0,10.0,71,0.00,,,0.00,Wunderground v.1.15,2013-06-24 21:07:00,
2013-06-24 17:13:00,82.5,73.4,30.00,SE,138,0.0,10.0,74,0.00,,,0.00,Wunderground v.1.15,2013-06-24 21:13:00,
2013-06-24 17:18:00,82.5,74.2,30.00,SE,138,0.0,10.0,76,0.00,,,0.00,Wunderground v.1.15,2013-06-24 21:18:00,
2013-06-24 17:24:00,83.1,73.5,30.00,SSE,161,1.0,10.0,73,0.00,,,0.00,Wunderground v.1.15,2013-06-24 21:24:00,
2013-06-24 17:30:00,83.4,72.2,30.00,SSE,165,1.0,10.0,69,0.00,,,0.00,Wunderground v.1.15,2013-06-24 21:30:00,
2013-06-24 17:35:00,83.6,73.2,30.00,South,186,1.0,10.0,71,0.00,,,0.00,Wunderground v.1.15,2013-06-24 21:35:00,
2013-06-24 17:40:00,84.0,74.0,30.00,South,186,0.0,10.0,72,0.00,,,0.00,Wunderground v.1.15,2013-06-24 21:40:00,
2013-06-24 17:46:00,84.0,73.6,30.00,SSE,161,1.0,10.0,71,0.00,,,0.00,Wunderground v.1.15,2013-06-24 21:46:00,
2013-06-24 17:51:00,83.5,71.8,30.00,SSE,168,2.0,10.0,68,0.00,,,0.00,Wunderground v.1.15,2013-06-24 21:51:00,
2013-06-24 17:56:00,83.8,72.1,30.00,South,169,1.0,10.0,68,0.00,,,0.00,Wunderground v.1.15,2013-06-24 21:56:00,
2013-06-24 18:02:00,84.1,72.8,30.00,SW,215,1.0,5.0,69,0.00,,,0.00,Wunderground v.1.15,2013-06-24 22:02:00,
2013-06-24 18:08:00,83.9,73.1,30.00,SSE,158,1.0,5.0,70,0.00,,,0.00,Wunderground v.1.15,2013-06-24 22:08:00,
2013-06-24 18:13:00,83.7,72.4,30.00,SE,137,1.0,5.0,69,0.00,,,0.00,Wunderground v.1.15,2013-06-24 22:13:00,
2013-06-24 18:19:00,83.6,71.9,30.00,South,179,2.0,5.0,68,0.00,,,0.00,Wunderground v.1.15,2013-06-24 22:19:00,
2013-06-24 18:25:00,83.2,72.0,30.00,ESE,118,1.0,5.0,69,0.00,,,0.00,Wunderground v.1.15,2013-06-24 22:25:00,
2013-06-24 18:31:00,83.2,72.0,30.00,SSE,163,2.0,4.0,69,0.00,,,0.00,Wunderground v.1.15,2013-06-24 22:31:00,
2013-06-24 18:37:00,83.5,73.5,30.00,SE,133,1.0,5.0,72,0.00,,,0.00,Wunderground v.1.15,2013-06-24 22:37:00,
2013-06-24 18:42:00,83.5,72.7,29.99,SSE,152,1.0,5.0,70,0.00,,,0.00,Wunderground v.1.15,2013-06-24 22:42:00,
2013-06-24 18:49:00,82.9,72.9,30.00,SSE,168,1.0,5.0,72,0.00,,,0.00,Wunderground v.1.15,2013-06-24 22:49:00,
2013-06-24 18:55:00,82.0,73.3,30.00,SSE,168,0.0,5.0,75,0.00,,,0.00,Wunderground v.1.15,2013-06-24 22:55:00,
2013-06-24 19:00:00,81.4,73.9,30.00,SSE,167,0.0,6.0,78,0.00,,,0.00,Wunderground v.1.15,2013-06-24 23:00:00,
2013-06-24 19:06:00,81.0,73.5,30.00,SE,145,0.0,6.0,78,0.00,,,0.00,Wunderground v.1.15,2013-06-24 23:06:00,
2013-06-24 19:12:00,80.9,73.0,29.99,SSE,148,1.0,6.0,77,0.00,,,0.00,Wunderground v.1.15,2013-06-24 23:12:00,
2013-06-24 19:18:00,80.7,73.6,29.99,SSE,157,1.0,6.0,79,0.00,,,0.00,Wunderground v.1.15,2013-06-24 23:18:00,
2013-06-24 19:25:00,79.8,73.1,29.99,SSE,163,0.0,6.0,80,0.00,,,0.00,Wunderground v.1.15,2013-06-24 23:25:00,
2013-06-24 19:31:00,79.1,72.8,29.99,SSE,160,0.0,7.0,81,0.00,,,0.00,Wunderground v.1.15,2013-06-24 23:31:00,
2013-06-24 19:36:00,78.2,73.0,29.99,SSE,160,0.0,7.0,84,0.00,,,0.00,Wunderground v.1.15,2013-06-24 23:36:00,
2013-06-24 19:42:00,77.3,72.4,29.99,SSE,160,0.0,7.0,85,0.00,,,0.00,Wunderground v.1.15,2013-06-24 23:42:00,
2013-06-24 19:47:00,76.9,71.7,29.99,SSE,160,0.0,7.0,84,0.00,,,0.00,Wunderground v.1.15,2013-06-24 23:47:00,
2013-06-24 19:52:00,76.5,72.0,29.99,SSE,160,0.0,7.0,86,0.00,,,0.00,Wunderground v.1.15,2013-06-24 23:52:00,
2013-06-24 19:58:00,76.3,71.8,30.00,SSE,161,0.0,7.0,86,0.00,,,0.00,Wunderground v.1.15,2013-06-24 23:58:00,
2013-06-24 20:03:00,75.8,72.0,29.99,SSE,160,0.0,0.0,88,0.00,,,0.00,Wunderground v.1.15,2013-06-25 00:03:00,
2013-06-24 20:09:00,75.5,71.7,29.99,SSE,161,0.0,0.0,88,0.00,,,0.00,Wunderground v.1.15,2013-06-25 00:09:00,
2013-06-24 20:15:00,75.2,71.7,29.99,SSE,161,0.0,0.0,89,0.00,,,0.00,Wunderground v.1.15,2013-06-25 00:15:00,
2013-06-24 20:20:00,75.0,71.9,30.00,SSE,161,0.0,0.0,90,0.00,,,0.00,Wunderground v.1.15,2013-06-25 00:20:00,
2013-06-24 20:26:00,74.6,71.8,30.00,SSE,161,0.0,0.0,91,0.00,,,0.00,Wunderground v.1.15,2013-06-25 00:26:00,
2013-06-24 20:32:00,74.1,71.6,30.00,SSE,160,0.0,0.0,92,0.00,,,0.00,Wunderground v.1.15,2013-06-25 00:32:00,
2013-06-24 20:37:00,73.8,71.6,30.00,SSE,160,0.0,0.0,93,0.00,,,0.00,Wunderground v.1.15,2013-06-25 00:37:00,
2013-06-24 20:43:00,73.3,71.2,30.00,SSE,161,0.0,0.0,93,0.00,,,0.00,Wunderground v.1.15,2013-06-25 00:43:00,
2013-06-24 20:49:00,72.8,71.0,30.00,SSE,161,0.0,0.0,94,0.00,,,0.00,Wunderground v.1.15,2013-06-25 00:49:00,
2013-06-24 20:55:00,72.3,70.5,30.00,SSE,160,0.0,0.0,94,0.00,,,0.00,Wunderground v.1.15,2013-06-25 00:55:00,
2013-06-24 21:00:00,72.0,70.5,30.00,SSE,160,0.0,0.0,95,0.00,,,0.00,Wunderground v.1.15,2013-06-25 01:00:00,
2013-06-24 21:06:00,71.6,70.1,30.00,SSE,161,0.0,0.0,95,0.00,,,0.00,Wunderground v.1.15,2013-06-25 01:06:00,
2013-06-24 21:12:00,71.3,69.8,30.01,SSE,160,0.0,0.0,95,0.00,,,0.00,Wunderground v.1.15,2013-06-25 01:12:00,
2013-06-24 21:18:00,71.1,69.9,30.01,SSE,161,0.0,0.0,96,0.00,,,0.00,Wunderground v.1.15,2013-06-25 01:18:00,
2013-06-24 21:24:00,70.9,69.7,30.01,SSE,160,0.0,0.0,96,0.00,,,0.00,Wunderground v.1.15,2013-06-25 01:24:00,
2013-06-24 21:30:00,70.7,69.5,30.01,SSE,161,0.0,0.0,96,0.00,,,0.00,Wunderground v.1.15,2013-06-25 01:30:00,
2013-06-24 21:35:00,70.5,69.6,30.02,SSE,160,0.0,0.0,97,0.00,,,0.00,Wunderground v.1.15,2013-06-25 01:35:00,
2013-06-24 21:41:00,70.3,69.4,30.02,SSE,161,0.0,0.0,97,0.00,,,0.00,Wunderground v.1.15,2013-06-25 01:41:00,
2013-06-24 21:47:00,70.1,69.2,30.02,SSE,161,0.0,0.0,97,0.00,,,0.00,Wunderground v.1.15,2013-06-25 01:47:00,
2013-06-24 21:52:00,69.9,69.0,30.02,SSE,160,0.0,0.0,97,0.00,,,0.00,Wunderground v.1.15,2013-06-25 01:52:00,
2013-06-24 21:58:00,69.7,68.8,30.02,SSE,160,0.0,0.0,97,0.00,,,0.00,Wunderground v.1.15,2013-06-25 01:58:00,
2013-06-24 22:04:00,69.4,68.8,30.03,SSE,161,0.0,0.0,98,0.00,,,0.00,Wunderground v.1.15,2013-06-25 02:04:00,
2013-06-24 22:10:00,69.3,68.7,30.03,SSE,161,0.0,0.0,98,0.00,,,0.00,Wunderground v.1.15,2013-06-25 02:10:00,
2013-06-24 22:16:00,69.2,68.6,30.03,SSE,161,0.0,0.0,98,0.00,,,0.00,Wunderground v.1.15,2013-06-25 02:16:00,
2013-06-24 22:21:00,69.0,68.4,30.03,SSE,160,0.0,0.0,98,0.00,,,0.00,Wunderground v.1.15,2013-06-25 02:21:00,
2013-06-24 22:27:00,68.8,68.2,30.03,SSE,161,0.0,0.0,98,0.00,,,0.00,Wunderground v.1.15,2013-06-25 02:27:00,
2013-06-24 22:33:00,68.5,67.9,30.03,SSE,161,0.0,0.0,98,0.00,,,0.00,Wunderground v.1.15,2013-06-25 02:33:00,
2013-06-24 22:39:00,68.2,67.6,30.03,SSE,161,0.0,0.0,98,0.00,,,0.00,Wunderground v.1.15,2013-06-25 02:39:00,
2013-06-24 22:44:00,68.0,67.4,30.03,SSE,161,0.0,0.0,98,0.00,,,0.00,Wunderground v.1.15,2013-06-25 02:44:00,
2013-06-24 22:50:00,67.9,67.6,30.03,SSE,161,0.0,0.0,99,0.00,,,0.00,Wunderground v.1.15,2013-06-25 02:50:00,
2013-06-24 22:55:00,67.6,67.3,30.03,SSE,161,0.0,0.0,99,0.00,,,0.00,Wunderground v.1.15,2013-06-25 02:55:00,
2013-06-24 23:00:00,67.5,67.2,30.03,SSE,161,0.0,0.0,99,0.00,,,0.00,Wunderground v.1.15,2013-06-25 03:00:00,
2013-06-24 23:06:00,67.4,67.1,30.03,SSE,161,0.0,0.0,99,0.00,,,0.00,Wunderground v.1.15,2013-06-25 03:06:00,
2013-06-24 23:12:00,67.0,66.7,30.03,SSE,160,0.0,0.0,99,0.00,,,0.00,Wunderground v.1.15,2013-06-25 03:12:00,
2013-06-24 23:19:00,66.8,66.5,30.03,SSE,161,0.0,0.0,99,0.00,,,0.00,Wunderground v.1.15,2013-06-25 03:19:00,
2013-06-24 23:25:00,66.5,66.2,30.03,SSE,160,0.0,0.0,99,0.00,,,0.00,Wunderground v.1.15,2013-06-25 03:25:00,
2013-06-24 23:30:00,66.3,66.0,30.03,SSE,161,0.0,0.0,99,0.00,,,0.00,Wunderground v.1.15,2013-06-25 03:30:00,
2013-06-24 23:36:00,66.1,65.8,30.03,SSE,160,0.0,0.0,99,0.00,,,0.00,Wunderground v.1.15,2013-06-25 03:36:00,
2013-06-24 23:41:00,66.0,65.7,30.04,SSE,160,0.0,0.0,99,0.00,,,0.00,Wunderground v.1.15,2013-06-25 03:41:00,
2013-06-24 23:47:00,65.9,65.6,30.03,SSE,161,0.0,0.0,99,0.00,,,0.00,Wunderground v.1.15,2013-06-25 03:47:00,
2013-06-24 23:52:00,65.7,65.4,30.04,SSE,160,0.0,0.0,99,0.00,,,0.00,Wunderground v.1.15,2013-06-25 03:52:00,
2013-06-24 23:58:00,65.7,65.4,30.04,SSE,161,0.0,0.0,99,0.00,,,0.00,Wunderground v.1.15,2013-06-25 03:58:00,